Time;durP1;ratioP1;P1;durP2;ratioP2;P2;SDS_P1;SDS_P2;PMS_P1;PMS_P2;Temp;Humidity;BMP_temperature;BMP_pressure;BME280_temperature;BME280_humidity;BME280_pressure;Samples;Min_cycle;Max_cycle;Signal;HPM_P1;HPM_P2
2021/10/27 00:00:22;;;;;;;7.05;5.05;;;7.10;85.40;;;;;;5135318;27;20194;-63
2021/10/27 00:02:54;;;;;;;5.13;3.85;;;7.10;84.70;;;;;;5131147;27;20263;-63
2021/10/27 00:05:22;;;;;;;6.22;4.55;;;7.00;82.40;;;;;;5114984;28;20192;-62
2021/10/27 00:07:50;;;;;;;7.97;3.80;;;7.00;84.00;;;;;;5118431;27;20259;-64
2021/10/27 00:10:23;;;;;;;6.10;3.58;;;7.00;84.90;;;;;;5135134;27;20188;-62
2021/10/27 00:12:50;;;;;;;4.88;3.45;;;7.00;86.00;;;;;;5131364;27;20605;-63
2021/10/27 00:15:18;;;;;;;5.07;4.18;;;7.00;86.50;;;;;;5114695;28;20265;-63
2021/10/27 00:17:48;;;;;;;5.93;3.92;;;7.00;84.80;;;;;;5116730;27;20189;-63
2021/10/27 00:20:15;;;;;;;4.80;3.78;;;6.90;84.40;;;;;;5135105;27;20722;-63
2021/10/27 00:22:45;;;;;;;4.90;4.15;;;6.90;85.50;;;;;;5128054;27;20185;-63
2021/10/27 00:25:14;;;;;;;5.30;4.30;;;6.90;86.30;;;;;;5123992;27;20184;-62
2021/10/27 00:27:43;;;;;;;5.65;3.67;;;6.90;86.40;;;;;;5128346;27;20188;-63
2021/10/27 00:30:13;;;;;;;5.30;4.10;;;6.90;86.40;;;;;;5114356;28;20229;-63
2021/10/27 00:32:41;;;;;;;4.85;4.07;;;6.90;86.70;;;;;;5119439;27;20634;-63
2021/10/27 00:35:13;;;;;;;3.85;3.40;;;6.90;86.60;;;;;;5134709;27;20760;-63
2021/10/27 00:37:40;;;;;;;5.10;3.60;;;6.90;87.10;;;;;;5132791;27;20190;-63
2021/10/27 00:40:16;;;;;;;5.13;3.65;;;6.90;86.80;;;;;;5133468;27;20227;-62
2021/10/27 00:42:45;;;;;;;5.32;3.40;;;6.80;87.10;;;;;;5113912;28;20560;-63
2021/10/27 00:45:13;;;;;;;5.20;3.70;;;6.80;87.20;;;;;;5114118;28;20224;-63
2021/10/27 00:47:58;;;;;;;4.15;3.67;;;6.70;86.50;;;;;;5129846;27;20191;-63
2021/10/27 00:50:25;;;;;;;4.43;3.40;;;6.70;85.60;;;;;;5115380;27;20200;-67
2021/10/27 00:52:58;;;;;;;4.28;3.35;;;6.70;85.60;;;;;;5134347;27;20260;-63
2021/10/27 00:55:33;;;;;;;4.97;3.97;;;6.60;85.50;;;;;;5132464;27;20237;-65
2021/10/27 00:58:02;;;;;;;6.93;3.90;;;6.60;86.00;;;;;;5113676;28;20219;-63
2021/10/27 01:00:45;;;;;;;5.85;4.20;;;6.60;85.90;;;;;;5114626;27;20276;-63
2021/10/27 01:03:17;;;;;;;7.40;4.45;;;6.60;85.70;;;;;;5134256;27;20183;-64
2021/10/27 01:05:50;;;;;;;6.70;4.22;;;6.60;84.90;;;;;;5130193;27;20846;-63
2021/10/27 01:08:20;;;;;;;6.80;3.72;;;6.60;83.30;;;;;;5121414;27;20190;-64
2021/10/27 01:10:48;;;;;;;6.30;4.30;;;6.50;83.00;;;;;;5130643;27;20266;-64
2021/10/27 01:13:22;;;;;;;4.30;3.15;;;6.50;82.80;;;;;;5113564;28;20192;-63
2021/10/27 01:15:51;;;;;;;3.70;3.15;;;6.50;81.50;;;;;;5115415;27;20215;-63
2021/10/27 01:18:19;;;;;;;4.53;3.03;;;6.40;81.50;;;;;;5133934;27;20192;-63
2021/10/27 01:20:47;;;;;;;3.22;2.92;;;6.40;81.80;;;;;;5131790;27;20707;-63
2021/10/27 01:23:15;;;;;;;4.32;3.20;;;6.30;82.30;;;;;;5113270;28;20197;-63
2021/10/27 01:25:43;;;;;;;5.65;3.25;;;6.30;82.70;;;;;;5113208;28;20224;-63
2021/10/27 01:28:12;;;;;;;4.40;3.70;;;6.30;83.00;;;;;;5113694;28;20196;-63
2021/10/27 01:30:41;;;;;;;3.40;2.83;;;6.20;83.10;;;;;;5113097;28;20203;-63
2021/10/27 01:33:10;;;;;;;3.58;3.13;;;6.20;82.70;;;;;;5133462;27;20184;-63
2021/10/27 01:35:38;;;;;;;5.82;3.33;;;6.20;83.00;;;;;;5133788;27;20608;-63
2021/10/27 01:38:07;;;;;;;3.50;2.20;;;6.10;82.90;;;;;;5116960;27;20191;-63
2021/10/27 01:40:38;;;;;;;4.25;3.78;;;6.10;82.80;;;;;;5113052;28;20257;-63
2021/10/27 01:43:05;;;;;;;4.18;2.60;;;6.10;82.80;;;;;;5112755;28;20220;-63
2021/10/27 01:45:33;;;;;;;3.53;2.30;;;6.10;82.80;;;;;;5112958;28;20669;-62
2021/10/27 01:48:01;;;;;;;4.43;2.85;;;6.10;82.70;;;;;;5127103;27;20187;-63
2021/10/27 01:50:36;;;;;;;3.78;3.00;;;6.00;82.80;;;;;;5133545;27;20195;-63
2021/10/27 01:53:04;;;;;;;3.83;2.63;;;6.00;82.20;;;;;;5118354;27;20232;-63
2021/10/27 01:55:32;;;;;;;4.45;2.92;;;5.90;82.20;;;;;;5112727;28;20705;-63
2021/10/27 01:58:00;;;;;;;4.10;2.97;;;5.90;82.50;;;;;;5125896;28;20187;-63
2021/10/27 02:00:27;;;;;;;4.68;2.80;;;5.80;81.50;;;;;;5133428;28;20191;-62
2021/10/27 02:02:55;;;;;;;4.30;3.03;;;5.80;80.90;;;;;;5120978;28;20189;-63
2021/10/27 02:05:24;;;;;;;3.65;3.00;;;5.60;80.70;;;;;;5112777;28;20228;-62
2021/10/27 02:07:51;;;;;;;4.47;3.10;;;5.50;80.50;;;;;;5124448;28;20198;-62
2021/10/27 02:10:23;;;;;;;3.58;2.70;;;5.40;80.30;;;;;;5133314;28;20542;-63
2021/10/27 02:12:52;;;;;;;3.85;2.63;;;5.30;80.80;;;;;;5121409;28;20634;-63
2021/10/27 02:15:28;;;;;;;5.18;2.80;;;5.20;82.20;;;;;;5112342;28;20307;-63
2021/10/27 02:17:57;;;;;;;4.38;2.55;;;5.20;82.00;;;;;;5127788;27;20183;-62
2021/10/27 02:20:29;;;;;;;3.72;2.15;;;5.20;82.20;;;;;;5137356;27;20188;-63
2021/10/27 02:23:01;;;;;;;3.75;2.92;;;5.30;81.70;;;;;;5126111;27;20184;-62
2021/10/27 02:25:28;;;;;;;4.65;3.10;;;5.30;81.90;;;;;;5116544;28;20188;-62
2021/10/27 02:27:57;;;;;;;4.07;2.95;;;5.30;82.10;;;;;;5123368;27;20183;-63
2021/10/27 02:30:25;;;;;;;3.10;2.72;;;5.20;82.20;;;;;;5137213;27;20192;-63
2021/10/27 02:32:52;;;;;;;3.53;2.30;;;5.20;82.50;;;;;;5126366;27;20670;-63
2021/10/27 02:35:21;;;;;;;4.25;3.22;;;5.10;81.30;;;;;;5119400;27;20261;-63
2021/10/27 02:37:48;;;;;;;4.03;2.70;;;5.00;81.20;;;;;;5137071;27;20196;-63
2021/10/27 02:40:18;;;;;;;3.80;2.80;;;4.90;81.40;;;;;;5134382;27;20188;-63
2021/10/27 02:42:50;;;;;;;3.33;2.42;;;4.80;81.50;;;;;;5116477;28;20646;-62
2021/10/27 02:45:20;;;;;;;5.10;3.03;;;4.90;82.20;;;;;;5117268;27;20189;-63
2021/10/27 02:47:49;;;;;;;5.38;3.30;;;4.90;82.00;;;;;;5116265;28;20188;-63
2021/10/27 02:50:17;;;;;;;6.65;3.25;;;4.90;82.30;;;;;;5117271;27;20607;-63
2021/10/27 02:52:48;;;;;;;5.85;3.10;;;4.90;82.60;;;;;;5136608;27;20192;-63
2021/10/27 02:55:16;;;;;;;3.90;3.03;;;4.90;82.70;;;;;;5135602;27;20255;-64
2021/10/27 02:57:43;;;;;;;4.75;3.15;;;4.90;82.50;;;;;;5115967;28;20189;-63
2021/10/27 03:00:11;;;;;;;5.93;3.33;;;4.90;82.30;;;;;;5116423;28;20243;-62
2021/10/27 03:02:45;;;;;;;7.18;3.70;;;4.90;82.10;;;;;;5135627;27;20252;-62
2021/10/27 03:05:13;;;;;;;4.40;3.30;;;4.90;82.30;;;;;;5136580;27;20195;-63
2021/10/27 03:07:40;;;;;;;4.40;2.95;;;4.90;82.40;;;;;;5116131;27;20197;-62
2021/10/27 03:10:13;;;;;;;4.43;3.67;;;4.90;82.40;;;;;;5115717;28;20283;-62
2021/10/27 03:12:41;;;;;;;5.28;3.67;;;4.90;82.20;;;;;;5135188;27;20194;-61
2021/10/27 03:15:09;;;;;;;4.40;2.90;;;4.90;81.90;;;;;;5136279;27;20223;-64
2021/10/27 03:17:38;;;;;;;5.07;3.20;;;4.90;82.80;;;;;;5117346;27;20181;-62
2021/10/27 03:20:08;;;;;;;3.95;2.85;;;4.90;84.20;;;;;;5115574;28;20227;-63
2021/10/27 03:22:40;;;;;;;5.45;3.50;;;4.90;84.40;;;;;;5133000;27;20184;-63
2021/10/27 03:25:10;;;;;;;3.92;2.88;;;4.90;84.50;;;;;;5136156;27;20276;-63
2021/10/27 03:27:38;;;;;;;4.32;3.35;;;4.90;84.00;;;;;;5116480;27;20553;-63
2021/10/27 03:30:08;;;;;;;4.65;3.47;;;4.90;83.20;;;;;;5115499;28;20196;-63
2021/10/27 03:32:36;;;;;;;4.22;3.72;;;4.80;82.40;;;;;;5132458;27;20232;-63
2021/10/27 03:35:07;;;;;;;6.07;4.68;;;4.80;82.00;;;;;;5135914;27;20573;-63
2021/10/27 03:37:36;;;;;;;4.25;3.38;;;4.80;82.00;;;;;;5118679;27;20194;-63
2021/10/27 03:40:13;;;;;;;4.38;2.92;;;4.80;81.80;;;;;;5115275;28;20184;-63
2021/10/27 03:42:40;;;;;;;3.80;2.47;;;4.80;82.00;;;;;;5131604;27;20210;-63
2021/10/27 03:45:10;;;;;;;2.92;2.58;;;4.80;82.30;;;;;;5135960;27;20270;-63
2021/10/27 03:47:38;;;;;;;4.35;3.10;;;4.80;81.70;;;;;;5118558;27;20188;-63
2021/10/27 03:50:13;;;;;;;17.45;11.10;;;4.70;80.30;;;;;;5115050;28;20625;-63
2021/10/27 03:52:40;;;;;;;21.52;13.63;;;4.60;80.70;;;;;;5131373;27;20223;-63
2021/10/27 03:55:08;;;;;;;12.80;7.97;;;4.60;81.50;;;;;;5135142;27;20252;-64
2021/10/27 03:57:35;;;;;;;5.32;4.05;;;4.50;79.80;;;;;;5134595;27;20184;-63
2021/10/27 04:00:06;;;;;;;4.95;3.13;;;4.40;79.20;;;;;;5133510;27;20630;-63
2021/10/27 04:02:37;;;;;;;3.95;3.08;;;4.30;80.00;;;;;;5135594;27;20741;-63
2021/10/27 04:05:05;;;;;;;6.03;3.90;;;4.30;80.40;;;;;;5133959;27;20563;-63
2021/10/27 04:07:36;;;;;;;4.35;2.38;;;4.20;81.00;;;;;;5114990;28;20188;-63
2021/10/27 04:10:11;;;;;;;3.78;2.53;;;4.20;81.60;;;;;;5115066;27;20219;-63
2021/10/27 04:12:41;;;;;;;5.75;3.40;;;4.20;81.50;;;;;;5135590;27;20194;-64
2021/10/27 04:15:14;;;;;;;4.63;2.95;;;4.20;82.00;;;;;;5134010;27;20235;-63
2021/10/27 04:17:43;;;;;;;4.30;3.38;;;4.20;82.20;;;;;;5114893;28;20550;-63
2021/10/27 04:20:12;;;;;;;5.00;4.05;;;4.20;82.30;;;;;;5115008;28;20192;-63
2021/10/27 04:22:41;;;;;;;4.78;3.55;;;4.20;83.20;;;;;;5135240;27;20658;-63
2021/10/27 04:25:12;;;;;;;4.25;2.92;;;4.20;84.30;;;;;;5117996;27;20184;-63
2021/10/27 04:27:40;;;;;;;6.90;5.50;;;4.20;85.10;;;;;;5114773;28;20195;-63
2021/10/27 04:30:09;;;;;;;10.77;6.65;;;4.30;85.60;;;;;;5130178;27;20188;-63
2021/10/27 04:32:38;;;;;;;10.05;7.55;;;4.30;85.80;;;;;;5135003;27;20291;-63
2021/10/27 04:35:10;;;;;;;5.95;4.35;;;4.40;85.60;;;;;;5119419;27;20188;-63
2021/10/27 04:37:41;;;;;;;4.80;3.95;;;4.40;85.70;;;;;;5111503;28;20199;-63
2021/10/27 04:40:17;;;;;;;6.25;3.65;;;4.40;85.90;;;;;;5124437;27;20187;-63
2021/10/27 04:42:45;;;;;;;26.85;7.97;;;4.40;86.10;;;;;;5096777;27;20192;-63
2021/10/27 04:45:14;;;;;;;7.65;5.55;;;4.40;86.00;;;;;;5128614;27;20710;-63
2021/10/27 04:47:43;;;;;;;8.38;4.95;;;4.40;86.20;;;;;;5128129;27;20248;-63
2021/10/27 04:50:16;;;;;;;4.32;3.58;;;4.50;86.20;;;;;;5124671;27;20191;-63
2021/10/27 04:52:43;;;;;;;5.07;4.50;;;4.50;85.80;;;;;;5132705;27;20199;-63
2021/10/27 04:55:12;;;;;;;7.10;4.70;;;4.50;85.40;;;;;;5128514;27;20256;-63
2021/10/27 04:57:41;;;;;;;5.90;4.25;;;4.50;84.70;;;;;;5130503;27;20282;-62
2021/10/27 05:00:09;;;;;;;8.52;4.22;;;4.50;83.80;;;;;;5115931;27;20525;-63
2021/10/27 05:02:37;;;;;;;8.10;5.45;;;4.50;83.40;;;;;;5122754;27;20184;-63
2021/10/27 05:05:06;;;;;;;10.18;4.20;;;4.50;83.00;;;;;;5133536;27;20187;-63
2021/10/27 05:07:33;;;;;;;7.20;4.85;;;4.50;82.10;;;;;;5122936;27;20643;-63
2021/10/27 05:10:01;;;;;;;9.50;6.15;;;4.50;82.00;;;;;;5113373;27;20241;-63
2021/10/27 05:12:29;;;;;;;7.60;5.63;;;4.40;81.30;;;;;;5112653;28;20192;-63
2021/10/27 05:14:58;;;;;;;7.65;3.90;;;;;;;;;;5121157;27;20680;-62
2021/10/27 05:17:25;;;;;;;4.50;3.58;;;;;;;;;;5130992;27;20272;-63
2021/10/27 05:19:53;;;;;;;4.80;3.45;;;;;;;;;;5119324;27;20184;-62
2021/10/27 05:22:21;;;;;;;183.77;89.45;;;;;;;;;;5132867;27;20279;-62
2021/10/27 05:24:48;;;;;;;117.60;60.00;;;4.40;80.30;;;;;;5126801;27;20528;-63
2021/10/27 05:27:16;;;;;;;121.50;64.35;;;4.10;82.60;;;;;;5112705;28;20237;-64
2021/10/27 05:29:45;;;;;;;38.25;21.70;;;4.10;82.00;;;;;;5116884;27;20201;-63
2021/10/27 05:32:12;;;;;;;9.35;6.50;;;4.00;81.50;;;;;;5132795;27;20188;-62
2021/10/27 05:34:42;;;;;;;9.13;6.43;;;3.90;81.10;;;;;;5129008;27;20187;-63
2021/10/27 05:37:10;;;;;;;104.10;60.45;;;3.90;82.10;;;;;;5112778;28;20216;-63
2021/10/27 05:39:37;;;;;;;125.35;64.80;;;3.90;82.90;;;;;;5117233;27;20215;-62
2021/10/27 05:42:09;;;;;;;146.13;80.93;;;3.90;83.00;;;;;;5115159;27;20279;-63
2021/10/27 05:44:36;;;;;;;104.25;63.05;;;3.90;83.70;;;;;;5112272;28;20224;-64
2021/10/27 05:47:05;;;;;;;24.27;15.85;;;3.90;84.90;;;;;;5110599;28;20219;-68
2021/10/27 05:49:36;;;;;;;17.83;13.80;;;3.90;86.10;;;;;;5111448;28;20184;-63
2021/10/27 05:55:00;;;;;;;37.65;25.58;;;4.00;86.70;;;;;;5109473;28;21305;-63
2021/10/27 05:55:07;;;;;;;27.38;21.08;;;4.00;86.80;;;;;;5100465;27;20639;-64
2021/10/27 05:57:36;;;;;;;27.50;19.40;;;4.00;87.00;;;;;;5100907;28;20208;-63
2021/10/27 06:00:05;;;;;;;9.02;6.72;;;4.00;86.40;;;;;;5109744;28;20257;-64
2021/10/27 06:02:34;;;;;;;8.73;7.35;;;4.10;86.10;;;;;;5106134;28;20192;-63
2021/10/27 06:05:01;;;;;;;9.93;8.32;;;4.10;85.90;;;;;;5108419;28;20196;-63
2021/10/27 06:07:29;;;;;;;84.18;53.80;;;4.10;85.70;;;;;;5108852;28;20191;-63
2021/10/27 06:09:57;;;;;;;111.35;71.43;;;4.10;85.80;;;;;;5100827;28;20180;-63
2021/10/27 06:12:24;;;;;;;62.10;40.58;;;4.10;85.70;;;;;;5111579;28;20245;-64
2021/10/27 06:14:52;;;;;;;61.33;42.63;;;4.20;86.00;;;;;;5112278;28;20183;-63
2021/10/27 06:17:19;;;;;;;50.92;34.85;;;4.30;86.40;;;;;;5100665;28;20217;-64
2021/10/27 06:19:51;;;;;;;44.08;26.38;;;4.30;85.60;;;;;;5102282;28;20185;-63
2021/10/27 06:22:18;;;;;;;40.30;28.73;;;4.50;86.10;;;;;;5092324;28;20182;-63
2021/10/27 06:24:46;;;;;;;30.52;23.27;;;4.50;85.90;;;;;;5091890;28;20189;-63
2021/10/27 06:27:18;;;;;;;21.45;16.65;;;4.70;85.40;;;;;;5109608;28;20546;-63
2021/10/27 06:29:49;;;;;;;18.17;11.10;;;4.80;85.40;;;;;;5110774;28;20189;-64
2021/10/27 06:32:25;;;;;;;26.25;20.35;;;4.90;85.20;;;;;;5110000;28;20240;-63
2021/10/27 06:34:58;;;;;;;16.75;13.45;;;5.00;84.50;;;;;;5100101;28;20227;-63
2021/10/27 06:37:45;;;;;;;16.58;11.15;;;5.20;83.80;;;;;;5109015;28;20212;-63
2021/10/27 06:46:12;;;;;;;13.00;8.32;;;6.10;82.60;;;;;;5110255;28;20322;-63
2021/10/27 06:48:39;;;;;;;9.50;5.78;;;6.30;83.00;;;;;;5123521;28;20184;-63
2021/10/27 06:51:08;;;;;;;5.75;4.50;;;6.80;83.30;;;;;;5133535;28;20282;-63
2021/10/27 06:53:35;;;;;;;9.13;6.80;;;7.10;82.00;;;;;;5133492;28;20199;-64
2021/10/27 06:56:07;;;;;;;9.55;7.53;;;7.40;81.30;;;;;;5133242;28;20229;-63
2021/10/27 06:58:42;;;;;;;16.13;12.43;;;7.70;79.50;;;;;;5133537;28;20291;-64
2021/10/27 07:01:14;;;;;;;87.97;59.90;;;7.90;77.30;;;;;;5133744;28;20188;-64
2021/10/27 07:03:57;;;;;;;102.50;67.40;;;8.20;76.20;;;;;;5135458;27;20213;-63
2021/10/27 07:17:20;;;;;;;12.00;7.22;;;10.40;68.40;;;;;;5136514;27;20256;-64
2021/10/27 07:19:47;;;;;;;9.35;7.45;;;10.80;68.40;;;;;;5136959;27;20195;-65
2021/10/27 07:22:16;;;;;;;12.65;6.30;;;11.40;67.00;;;;;;5136933;27;20223;-64
2021/10/27 07:24:43;;;;;;;9.48;7.00;;;11.90;61.30;;;;;;5136935;27;20242;-65
2021/10/27 07:27:11;;;;;;;9.38;6.82;;;12.20;62.40;;;;;;5136906;27;20227;-64
2021/10/27 07:29:40;;;;;;;8.02;6.13;;;12.50;60.60;;;;;;5137052;27;20294;-64
2021/10/27 07:32:10;;;;;;;15.70;10.10;;;13.00;59.30;;;;;;5136696;27;20191;-64
2021/10/27 07:34:47;;;;;;;38.10;23.00;;;;;;;;;;5136487;27;20195;-64
2021/10/27 07:42:47;;;;;;;6.57;4.13;;;;;;;;;;5134691;27;20219;-64
2021/10/27 07:45:14;;;;;;;6.53;5.50;;;;;;;;;;5136547;27;20183;-65
2021/10/27 07:47:42;;;;;;;7.70;5.30;;;16.60;49.80;;;;;;5135990;27;20191;-64
2021/10/27 07:50:09;;;;;;;8.35;6.80;;;17.00;48.90;;;;;;5136338;27;20437;-64
2021/10/27 07:52:37;;;;;;;4.93;3.90;;;17.50;48.20;;;;;;5136341;27;20270;-64
2021/10/27 07:55:06;;;;;;;6.37;4.10;;;18.10;47.00;;;;;;5136037;27;20458;-63
2021/10/27 07:57:38;;;;;;;4.73;3.50;;;18.60;45.80;;;;;;5135595;27;21006;-64
2021/10/27 08:00:06;;;;;;;4.90;3.23;;;19.10;44.00;;;;;;5136341;27;20502;-64
2021/10/27 08:02:37;;;;;;;7.23;4.00;;;19.60;42.60;;;;;;5135926;27;20441;-65
2021/10/27 08:05:05;;;;;;;8.43;4.30;;;20.10;41.00;;;;;;5136360;27;20440;-64
2021/10/27 08:07:32;;;;;;;8.10;3.67;;;;;;;;;;5136005;27;20437;-64
2021/10/27 08:09:59;;;;;;;4.17;3.50;;;21.20;39.60;;;;;;5135511;27;20433;-64
2021/10/27 08:12:28;;;;;;;3.40;2.77;;;;;;;;;;5136004;27;20488;-64
2021/10/27 08:14:55;;;;;;;3.97;3.20;;;21.90;37.50;;;;;;5135523;27;20437;-64
2021/10/27 08:17:23;;;;;;;4.00;3.13;;;;;;;;;;5135728;27;20476;-64
2021/10/27 08:19:50;;;;;;;7.00;4.83;;;;;;;;;;5135704;27;20437;-65
2021/10/27 08:22:18;;;;;;;6.20;4.07;;;;;;;;;;5135906;27;20437;-65
2021/10/27 08:24:52;;;;;;;3.70;3.20;;;;;;;;;;5135323;27;20448;-66
2021/10/27 08:27:22;;;;;;;6.20;3.30;;;;;;;;;;5135565;27;20433;-65
2021/10/27 08:29:50;;;;;;;4.27;2.07;;;;;;;;;;5135299;27;20441;-64
2021/10/27 08:32:29;;;;;;;6.00;2.43;;;;;;;;;;5135187;27;20430;-65
2021/10/27 08:34:56;;;;;;;4.10;2.77;;;;;;;;;;5135234;27;20452;-64
2021/10/27 08:37:24;;;;;;;3.70;2.53;;;23.60;35.70;;;;;;5135008;27;20561;-64
2021/10/27 08:39:52;;;;;;;4.00;3.10;;;31.10;25.40;;;;;;5135177;27;20933;-64
2021/10/27 08:42:20;;;;;;;4.83;3.70;;;31.70;24.50;;;;;;5134933;27;20912;-65
2021/10/27 08:44:48;;;;;;;7.27;3.17;;;32.40;22.90;;;;;;5134926;27;20504;-65
2021/10/27 08:47:20;;;;;;;5.03;3.87;;;33.10;22.60;;;;;;5135208;27;20524;-65
2021/10/27 08:49:48;;;;;;;5.80;2.77;;;;;;;;;;5134856;27;20437;-65
2021/10/27 08:52:15;;;;;;;3.70;3.30;;;;;;;;;;5135119;27;20524;-65
2021/10/27 08:54:43;;;;;;;4.03;3.47;;;;;;;;;;5134794;27;20515;-65
2021/10/27 08:57:11;;;;;;;5.33;3.07;;;;;;;;;;5134786;27;20645;-65
2021/10/27 08:59:47;;;;;;;4.17;2.53;;;;;;;;;;5134937;27;20433;-64
2021/10/27 09:02:42;;;;;;;3.63;2.80;;;;;;;;;;5134790;27;20472;-65
2021/10/27 09:05:21;;;;;;;4.07;2.80;;;;;;;;;;5134868;27;20915;-64
2021/10/27 09:08:09;;;;;;;3.80;2.43;;;;;;;;;;5134815;27;20512;-65
2021/10/27 09:16:29;;;;;;;5.70;2.20;;;;;;;;;;5118184;27;20440;-65
2021/10/27 09:36:08;;;;;;;4.97;2.53;;;;;;;;;;5134318;27;20470;-65
2021/10/27 10:04:41;;;;;;;3.30;2.40;;;;;;;;;;5117414;28;20429;-65
2021/10/27 10:07:10;;;;;;;3.53;2.50;;;;;;;;;;5133932;28;20485;-65
2021/10/27 10:09:40;;;;;;;2.93;2.23;;;;;;;;;;5133845;28;20429;-65
2021/10/27 10:12:09;;;;;;;3.27;2.40;;;;;;;;;;5133765;28;20437;-65
2021/10/27 10:14:36;;;;;;;3.47;2.30;;;;;;;;;;5133161;28;20469;-65
2021/10/27 10:17:05;;;;;;;3.53;2.50;;;;;;;;;;5133663;28;20506;-65
2021/10/27 10:19:35;;;;;;;4.13;2.07;;;;;;;;;;5133820;28;20649;-65
2021/10/27 10:22:03;;;;;;;3.80;1.53;;;;;;;;;;5134002;28;20602;-65
2021/10/27 10:24:35;;;;;;;2.60;1.80;;;;;;;;;;5133902;28;20523;-65
2021/10/27 10:27:06;;;;;;;3.53;2.13;;;;;;;;;;5133621;28;20519;-65
2021/10/27 10:30:00;;;;;;;3.83;2.17;;;;;;;;;;5133992;28;20482;-65
2021/10/27 10:32:41;;;;;;;2.30;1.77;;;;;;;;;;5134002;28;20429;-65
2021/10/27 10:35:13;;;;;;;3.07;2.00;;;;;;;;;;5133873;28;20444;-65
2021/10/27 10:37:46;;;;;;;4.00;2.27;;;;;;;;;;5135761;27;20437;-66
2021/10/27 10:40:45;;;;;;;5.43;1.90;;;;;;;;;;5137285;27;20433;-65
2021/10/27 10:43:19;;;;;;;2.80;2.17;;;;;;;;;;5081404;27;20542;-65
2021/10/27 10:45:56;;;;;;;2.80;2.23;;;42.50;12.90;;;;;;5137734;27;20433;-66
2021/10/27 11:25:10;;;;;;;4.10;1.80;;;48.80;7.90;;;;;;5045472;28;20469;-64
2021/10/27 11:39:20;;;;;;;3.43;1.80;;;49.30;7.80;;;;;;5125848;27;20425;-65
2021/10/27 11:41:54;;;;;;;2.50;1.80;;;49.20;7.70;;;;;;5127097;27;20445;-63
2021/10/27 11:44:36;;;;;;;2.83;1.60;;;49.30;7.90;;;;;;5128386;28;20484;-63
2021/10/27 11:47:08;;;;;;;2.63;1.70;;;49.40;7.80;;;;;;5129339;28;20812;-63
2021/10/27 11:49:39;;;;;;;2.93;1.67;;;49.30;7.80;;;;;;5128835;28;20436;-63
2021/10/27 11:52:06;;;;;;;4.40;1.87;;;49.10;7.60;;;;;;5128089;28;20476;-63
2021/10/27 11:54:34;;;;;;;3.53;2.00;;;48.70;7.90;;;;;;5129620;28;20448;-65
2021/10/27 11:57:03;;;;;;;3.07;1.70;;;48.30;8.00;;;;;;5130115;28;20537;-63
2021/10/27 11:59:46;;;;;;;3.23;2.53;;;48.20;8.30;;;;;;5130474;27;20480;-63
2021/10/27 12:02:13;;;;;;;2.10;1.70;;;48.20;8.30;;;;;;5130401;28;20749;-65
2021/10/27 12:04:44;;;;;;;4.13;2.00;;;48.30;8.50;;;;;;5130138;28;20481;-63
2021/10/27 12:07:18;;;;;;;3.13;2.00;;;48.30;8.40;;;;;;5130444;27;20464;-63
2021/10/27 12:10:03;;;;;;;2.50;1.73;;;47.80;8.50;;;;;;5129846;28;20438;-63
2021/10/27 12:18:08;;;;;;;2.50;2.10;;;46.90;8.90;;;;;;5100172;28;20427;-63
2021/10/27 12:20:40;;;;;;;3.30;2.30;;;46.70;9.00;;;;;;5116209;28;20437;-63
2021/10/27 12:23:18;;;;;;;4.03;1.97;;;46.70;9.00;;;;;;5116424;28;20446;-63
2021/10/27 12:25:45;;;;;;;2.10;1.50;;;46.60;9.30;;;;;;5115971;28;20481;-63
2021/10/27 12:28:29;;;;;;;2.60;2.10;;;46.30;9.40;;;;;;5116347;28;20469;-63
2021/10/27 12:30:56;;;;;;;3.40;2.03;;;46.20;9.50;;;;;;5115969;28;20438;-63
2021/10/27 12:33:41;;;;;;;3.37;2.03;;;46.10;9.90;;;;;;5116092;28;20430;-63
2021/10/27 12:36:15;;;;;;;2.97;1.93;;;45.80;9.80;;;;;;5116051;28;20433;-63
2021/10/27 12:38:43;;;;;;;3.07;2.13;;;45.10;10.00;;;;;;5116157;28;20466;-65
2021/10/27 12:41:21;;;;;;;3.30;1.93;;;44.60;10.00;;;;;;5115897;28;20434;-63
2021/10/27 12:43:48;;;;;;;3.10;2.37;;;44.20;10.20;;;;;;5115575;28;20959;-64
2021/10/27 12:46:19;;;;;;;3.60;2.07;;;43.80;10.90;;;;;;5115552;28;20538;-65
2021/10/27 12:48:47;;;;;;;3.90;1.93;;;43.70;10.90;;;;;;5115909;28;20441;-64
2021/10/27 12:51:15;;;;;;;4.63;2.23;;;43.40;10.90;;;;;;5115816;28;20442;-65
2021/10/27 12:53:43;;;;;;;2.40;1.70;;;42.40;10.90;;;;;;5115702;28;20438;-64
2021/10/27 12:56:14;;;;;;;3.47;1.50;;;41.40;11.20;;;;;;5115849;28;20916;-63
2021/10/27 12:58:44;;;;;;;2.10;1.23;;;40.60;11.50;;;;;;5115586;28;20517;-64
2021/10/27 13:01:28;;;;;;;3.07;1.50;;;39.60;12.10;;;;;;5115607;28;20469;-63
2021/10/27 13:04:14;;;;;;;3.60;1.80;;;38.80;12.60;;;;;;5115543;28;20434;-63
2021/10/27 13:06:55;;;;;;;2.80;1.80;;;37.40;13.60;;;;;;5115720;28;20451;-63
2021/10/27 13:18:05;;;;;;;3.93;1.13;;;33.40;16.30;;;;;;5094785;28;20842;-63
2021/10/27 13:23:54;;;;;;;3.00;1.60;;;31.30;18.00;;;;;;5076845;28;20804;-63
2021/10/27 13:29:36;;;;;;;2.93;1.23;;;29.60;19.60;;;;;;5051512;28;20970;-63
2021/10/27 13:32:05;;;;;;;2.33;1.00;;;28.80;20.60;;;;;;5051823;28;20445;-63
2021/10/27 13:34:32;;;;;;;5.20;1.83;;;28.10;21.50;;;;;;5075338;28;20439;-62
2021/10/27 13:37:00;;;;;;;2.60;1.10;;;27.30;22.00;;;;;;5094523;28;20439;-63
2021/10/27 13:39:29;;;;;;;3.30;1.47;;;26.70;22.20;;;;;;5094229;28;20500;-63
2021/10/27 13:41:58;;;;;;;2.30;1.20;;;26.20;22.90;;;;;;5094302;28;20480;-63
2021/10/27 13:44:29;;;;;;;2.73;0.97;;;25.60;23.20;;;;;;5094064;28;20987;-62
2021/10/27 13:47:06;;;;;;;6.17;2.17;;;25.10;23.50;;;;;;5094658;28;20496;-62
2021/10/27 13:57:59;;;;;;;2.77;1.40;;;23.50;26.00;;;;;;5094096;28;20587;-64
2021/10/27 14:06:08;;;;;;;2.97;1.47;;;22.40;27.20;;;;;;5094020;28;20561;-63
2021/10/27 14:08:45;;;;;;;2.67;1.30;;;22.10;27.50;;;;;;5093925;28;20435;-63
2021/10/27 14:11:21;;;;;;;3.43;1.70;;;21.80;27.70;;;;;;5093969;28;20530;-63
2021/10/27 14:14:01;;;;;;;3.53;1.30;;;21.30;28.10;;;;;;5093767;28;20996;-64
2021/10/27 15:20:20;;;;;;;5.27;2.10;;;;;;;;;;5113377;28;20425;-63
2021/10/27 15:22:57;;;;;;;4.10;2.17;;;;;;;;;;5113211;28;20803;-63
2021/10/27 15:28:21;;;;;;;2.93;2.30;;;;;;;;;;5095914;28;20803;-63
2021/10/27 15:33:58;;;;;;;3.63;2.30;;;;;;;;;;5095699;28;20426;-63
2021/10/27 15:36:39;;;;;;;2.60;2.00;;;;;;;;;;5113164;28;20477;-63
2021/10/27 15:42:01;;;;;;;5.70;2.00;;;;;;;;;;5112955;28;20510;-64
2021/10/27 15:44:41;;;;;;;5.03;2.90;;;;;;;;;;5113319;28;20789;-63
2021/10/27 15:52:52;;;;;;;5.93;3.20;;;;;;;;;;5105758;28;20919;-63
2021/10/27 15:55:19;;;;;;;8.30;4.23;;;;;;;;;;5116591;28;20524;-63
2021/10/27 15:57:46;;;;;;;7.30;4.87;;;;;;;;;;5116984;28;20438;-63
2021/10/27 16:00:14;;;;;;;6.60;5.13;;;;;;;;;;5116957;28;20466;-65
2021/10/27 16:02:41;;;;;;;7.63;5.33;;;;;;;;;;5116435;28;20425;-63
2021/10/27 16:05:10;;;;;;;7.33;5.07;;;;;;;;;;5116610;28;20495;-63
2021/10/27 16:07:38;;;;;;;6.67;4.70;;;;;;;;;;5116672;28;20437;-63
2021/10/27 16:10:13;;;;;;;6.30;4.70;;;;;;;;;;5116414;28;20459;-63
2021/10/27 16:12:41;;;;;;;8.40;5.13;;;;;;;;;;5116581;28;20441;-63
2021/10/27 16:15:13;;;;;;;9.50;5.43;;;;;;;;;;5115936;28;20534;-63
2021/10/27 16:17:40;;;;;;;7.17;4.90;;;;;;;;;;5116698;28;20439;-63
2021/10/27 16:20:10;;;;;;;8.73;4.60;;;;;;;;;;5116557;28;20442;-63
2021/10/27 16:22:40;;;;;;;10.00;4.50;;;;;;;;;;5116292;28;20470;-63
2021/10/27 16:25:09;;;;;;;5.30;4.27;;;;;;;;;;5115870;28;20429;-63
2021/10/27 16:27:37;;;;;;;6.57;4.50;;;;;;;;;;5115955;28;20519;-63
2021/10/27 16:30:05;;;;;;;7.10;5.20;;;;;;;;;;5116286;28;21019;-63
2021/10/27 16:32:32;;;;;;;9.27;4.40;;;;;;;;;;5115893;28;20434;-63
2021/10/27 16:35:00;;;;;;;6.17;4.90;;;;;;;;;;5115641;28;20465;-63
2021/10/27 16:37:28;;;;;;;7.93;5.70;;;;;;;;;;5115886;28;20525;-63
2021/10/27 16:39:56;;;;;;;7.90;5.73;;;17.40;36.20;;;;;;5115892;28;20430;-63
2021/10/27 16:42:25;;;;;;;5.13;3.83;;;14.40;48.10;;;;;;5115766;28;20468;-63
2021/10/27 16:44:53;;;;;;;7.60;6.10;;;14.20;48.30;;;;;;5116004;28;20518;-63
2021/10/27 16:47:21;;;;;;;7.13;3.83;;;;;;;;;;5115726;28;20438;-63
2021/10/27 16:49:48;;;;;;;7.80;6.00;;;;;;;;;;5115835;28;20430;-64
2021/10/27 16:52:16;;;;;;;9.93;5.63;;;;;;;;;;5115718;28;20486;-63
2021/10/27 16:54:45;;;;;;;9.98;5.95;;;;;;;;;;5115495;28;20279;-63
2021/10/27 16:57:12;;;;;;;7.40;4.97;;;;;;;;;;5115968;28;20188;-63
2021/10/27 16:59:39;;;;;;;5.22;4.53;;;;;;;;;;5115650;28;20224;-63
2021/10/27 17:02:07;;;;;;;4.82;4.22;;;;;;;;;;5115151;28;20192;-63
2021/10/27 17:04:35;;;;;;;7.85;5.35;;;;;;;;;;5115406;28;20283;-63
2021/10/27 17:07:02;;;;;;;6.20;4.93;;;;;;;;;;5115540;28;20622;-63
2021/10/27 17:09:29;;;;;;;8.90;4.40;;;;;;;;;;5115476;28;20716;-63
2021/10/27 17:11:58;;;;;;;6.72;5.32;;;;;;;;;;5115044;28;20227;-63
2021/10/27 17:14:25;;;;;;;6.40;4.80;;;;;;;;;;5115188;28;20609;-63
2021/10/27 17:16:54;;;;;;;8.30;5.65;;;;;;;;;;5115392;28;20626;-63
2021/10/27 17:19:21;;;;;;;8.75;6.22;;;;;;;;;;5115145;28;20602;-62
2021/10/27 17:21:54;;;;;;;11.48;6.75;;;;;;;;;;5115325;28;20280;-64
2021/10/27 17:24:22;;;;;;;11.27;6.88;;;;;;;;;;5115353;28;20228;-63
2021/10/27 17:26:49;;;;;;;9.00;6.90;;;;;;;;;;5115026;28;20274;-63